createdAt,value
2018-07-03T00:00:52.956Z,18.60
2018-07-03T00:05:47.480Z,18.50
2018-07-03T00:10:42.230Z,18.30
2018-07-03T00:15:37.003Z,18.20
2018-07-03T00:20:31.585Z,18.20
2018-07-03T00:25:26.197Z,18.00
2018-07-03T00:30:20.727Z,18.00
2018-07-03T00:35:15.318Z,18.00
2018-07-03T00:45:04.514Z,17.90
2018-07-03T00:50:00.108Z,17.90
2018-07-03T00:54:55.067Z,17.90
2018-07-03T01:00:06.443Z,17.90
2018-07-03T01:05:01.729Z,17.90
2018-07-03T01:09:56.308Z,18.00
2018-07-03T01:14:51.174Z,18.10
2018-07-03T01:19:45.790Z,18.20
2018-07-03T01:24:40.322Z,18.30
2018-07-03T01:29:34.989Z,18.30
2018-07-03T01:34:29.962Z,18.30
2018-07-03T01:39:24.842Z,18.30
2018-07-03T01:44:19.390Z,18.20
2018-07-03T01:54:08.825Z,18.30
2018-07-03T01:59:03.472Z,18.30
2018-07-03T02:03:57.974Z,18.20
2018-07-03T02:08:52.456Z,18.00
2018-07-03T02:13:47.112Z,18.00
2018-07-03T02:23:36.505Z,17.70
2018-07-03T02:28:30.950Z,17.60
2018-07-03T02:33:25.758Z,17.50
2018-07-03T02:38:20.441Z,17.30
2018-07-03T02:43:15.090Z,17.20
2018-07-03T02:48:09.850Z,17.20
2018-07-03T02:53:04.325Z,17.10
2018-07-03T03:02:53.494Z,16.80
2018-07-03T03:07:48.084Z,16.70
2018-07-03T03:12:42.556Z,16.50
2018-07-03T03:17:37.118Z,16.40
2018-07-03T03:22:31.805Z,16.30
2018-07-03T03:27:26.728Z,16.10
2018-07-03T03:32:21.223Z,16.00
2018-07-03T03:37:15.670Z,15.90
2018-07-03T03:42:10.276Z,15.90
2018-07-03T03:47:04.822Z,15.90
2018-07-03T03:56:54.692Z,15.80
2018-07-03T04:01:49.203Z,15.90
2018-07-03T04:06:43.714Z,15.90
2018-07-03T04:11:38.386Z,15.90
2018-07-03T04:16:32.840Z,15.90
2018-07-03T04:21:27.530Z,15.90
2018-07-03T04:26:22.184Z,15.90
2018-07-03T04:31:16.710Z,16.00
2018-07-03T04:41:05.634Z,16.10
2018-07-03T04:46:00.262Z,16.20
2018-07-03T04:50:54.803Z,16.40
2018-07-03T04:55:49.682Z,16.60
2018-07-03T05:00:44.120Z,17.00
2018-07-03T05:05:38.592Z,17.80
2018-07-03T05:10:33.204Z,18.30
2018-07-03T05:15:27.682Z,19.10
2018-07-03T05:20:22.170Z,21.70
2018-07-03T05:30:10.930Z,26.90
2018-07-03T05:35:06.251Z,29.00
2018-07-03T05:40:01.312Z,30.90
2018-07-03T05:44:56.274Z,31.60
2018-07-03T05:54:46.106Z,33.70
2018-07-03T06:09:30.297Z,36.50
2018-07-03T06:24:14.413Z,38.70
2018-07-03T06:29:09.181Z,38.70
2018-07-03T06:34:04.202Z,40.30
2018-07-03T06:38:58.929Z,41.20
2018-07-03T06:43:53.997Z,41.80
2018-07-03T06:48:48.904Z,41.70
2018-07-03T06:53:43.964Z,41.60
2018-07-03T07:03:33.317Z,44.30
2018-07-03T07:08:28.077Z,44.00
2018-07-03T07:13:22.924Z,44.80
2018-07-03T07:18:17.688Z,44.80
2018-07-03T07:23:12.580Z,45.40
2018-07-03T07:28:07.480Z,46.70
2018-07-03T07:33:03.165Z,47.70
2018-07-03T07:37:57.871Z,47.60
2018-07-03T07:42:53.047Z,46.80
2018-07-03T07:47:47.829Z,46.80
2018-07-03T07:52:42.724Z,47.10
2018-07-03T07:57:37.440Z,47.80
2018-07-03T08:02:32.337Z,46.60
2018-07-03T08:07:27.148Z,48.00
2018-07-03T08:12:22.093Z,49.10
2018-07-03T08:22:15.882Z,48.90
2018-07-03T08:27:10.632Z,50.40
2018-07-03T08:36:59.918Z,53.00
2018-07-03T08:41:54.811Z,52.40
2018-07-03T08:46:49.622Z,52.50
2018-07-03T08:51:44.396Z,53.40
2018-07-03T09:01:34.146Z,54.60
2018-07-03T09:06:28.902Z,56.90
2018-07-03T09:11:23.813Z,57.60
2018-07-03T09:16:18.696Z,57.70
2018-07-03T09:21:13.610Z,59.40
2018-07-03T09:26:08.332Z,59.40
2018-07-03T09:31:03.407Z,59.90
2018-07-03T09:40:52.875Z,60.40
2018-07-03T09:45:47.876Z,59.50
2018-07-03T09:50:42.632Z,58.90
2018-07-03T09:55:37.393Z,55.80
2018-07-03T10:00:37.397Z,51.40
2018-07-03T10:10:26.830Z,40.10
2018-07-03T10:20:16.056Z,34.20
2018-07-03T10:25:10.804Z,32.10
2018-07-03T10:30:06.776Z,30.90
2018-07-03T10:35:01.722Z,30.10
2018-07-03T10:39:56.638Z,29.60
2018-07-03T10:44:51.372Z,29.00
2018-07-03T10:49:46.122Z,28.80
2018-07-03T10:54:40.934Z,28.60
2018-07-03T10:59:35.736Z,28.40
2018-07-03T11:04:31.005Z,28.20
2018-07-03T11:09:25.785Z,28.20
2018-07-03T11:14:20.597Z,28.20
2018-07-03T11:19:15.724Z,28.20
2018-07-03T11:24:10.701Z,28.20
2018-07-03T11:29:05.680Z,28.20
2018-07-03T11:38:54.846Z,28.40
2018-07-03T11:43:51.003Z,28.40
2018-07-03T11:53:42.180Z,28.50
2018-07-03T11:58:37.672Z,28.40
2018-07-03T12:03:33.058Z,28.40
2018-07-03T12:13:22.560Z,28.50
2018-07-03T12:18:23.623Z,28.70
2018-07-03T12:28:13.709Z,28.80
2018-07-03T12:33:08.622Z,29.00
2018-07-03T12:38:03.501Z,29.10
2018-07-03T12:42:59.737Z,29.30
2018-07-03T12:47:54.898Z,29.40
2018-07-03T12:52:49.960Z,29.40
2018-07-03T12:57:46.144Z,29.40
2018-07-03T13:02:40.861Z,29.50
2018-07-03T13:07:36.722Z,29.70
2018-07-03T13:12:31.805Z,29.90
2018-07-03T13:17:27.320Z,29.90
2018-07-03T13:27:17.384Z,29.90
2018-07-03T13:32:12.209Z,30.00
2018-07-03T13:37:07.446Z,29.90
2018-07-03T13:42:03.059Z,29.90
2018-07-03T13:46:58.576Z,30.10
2018-07-03T13:51:53.377Z,30.30
2018-07-03T13:56:48.750Z,30.40
2018-07-03T14:01:44.083Z,30.50
2018-07-03T14:06:38.802Z,30.50
2018-07-03T14:11:33.618Z,30.30
2018-07-03T14:16:28.365Z,30.20
2018-07-03T14:26:17.754Z,30.40
2018-07-03T14:36:07.820Z,30.80
2018-07-03T14:50:51.645Z,30.90
2018-07-03T15:00:40.965Z,31.00
2018-07-03T15:05:35.913Z,31.00
2018-07-03T15:10:31.310Z,31.00
2018-07-03T15:30:10.320Z,31.00
2018-07-03T15:35:05.130Z,31.10
2018-07-03T15:40:00.054Z,31.00
2018-07-03T15:45:10.153Z,31.00
2018-07-03T15:55:00.388Z,31.00
2018-07-03T16:05:16.782Z,30.90
2018-07-03T16:10:11.482Z,30.80
2018-07-03T16:15:07.104Z,30.70
2018-07-03T16:20:07.160Z,30.60
2018-07-03T16:25:02.564Z,30.70
2018-07-03T16:29:57.735Z,30.60
2018-07-03T16:34:52.472Z,30.60
2018-07-03T16:39:47.226Z,30.50
2018-07-03T16:44:42.128Z,30.50
2018-07-03T16:49:36.984Z,30.40
2018-07-03T16:54:32.126Z,30.40
2018-07-03T16:59:27.093Z,30.40
2018-07-03T17:04:21.948Z,30.20
2018-07-03T17:09:17.003Z,30.10
2018-07-03T17:14:12.298Z,30.00
2018-07-03T17:19:12.360Z,29.80
2018-07-03T17:24:08.020Z,29.70
2018-07-03T17:29:03.204Z,29.60
2018-07-03T17:44:16.966Z,29.20
2018-07-03T17:49:11.935Z,29.20
2018-07-03T17:54:07.453Z,29.00
2018-07-03T17:59:02.335Z,28.90
2018-07-03T18:03:57.574Z,28.80
2018-07-03T18:08:53.127Z,28.70
2018-07-03T18:13:47.918Z,28.70
2018-07-03T18:18:42.696Z,28.60
2018-07-03T18:23:37.252Z,28.50
2018-07-03T18:28:32.402Z,28.40
2018-07-03T18:38:21.758Z,28.10
2018-07-03T18:43:16.273Z,28.00
2018-07-03T18:53:05.382Z,27.90
2018-07-03T18:58:00.009Z,27.80
2018-07-03T19:02:55.084Z,27.70
2018-07-03T19:07:49.582Z,27.50
2018-07-03T19:27:28.813Z,26.70
2018-07-03T19:32:23.288Z,26.60
2018-07-03T19:42:13.432Z,26.10
2018-07-03T19:47:08.823Z,25.90
2018-07-03T19:52:03.336Z,25.80
2018-07-03T19:56:59.698Z,25.50
2018-07-03T20:01:54.726Z,25.30
2018-07-03T20:06:49.380Z,25.00
2018-07-03T20:11:44.276Z,24.70
2018-07-03T20:16:39.068Z,24.50
2018-07-03T20:21:33.668Z,24.30
2018-07-03T20:31:23.221Z,23.80
2018-07-03T20:36:18.470Z,23.80
2018-07-03T20:41:13.348Z,23.80
2018-07-03T20:46:09.040Z,23.70
2018-07-03T20:51:03.991Z,23.50
2018-07-03T21:00:53.246Z,23.40
2018-07-03T21:05:48.615Z,23.20
2018-07-03T21:10:43.401Z,23.10
2018-07-03T21:15:38.324Z,23.00
2018-07-03T21:20:33.355Z,22.90
2018-07-03T21:30:22.717Z,22.80
2018-07-03T21:35:19.882Z,22.70
2018-07-03T21:40:14.536Z,22.60
2018-07-03T21:45:09.220Z,22.50
2018-07-03T21:50:04.087Z,22.50
2018-07-03T21:59:54.071Z,22.40
2018-07-03T22:04:48.698Z,22.30
2018-07-03T22:09:43.302Z,22.30
2018-07-03T22:14:40.413Z,22.20
2018-07-03T22:29:24.690Z,22.10
2018-07-03T22:34:19.233Z,22.10
2018-07-03T22:39:14.546Z,22.10
2018-07-03T22:44:09.782Z,22.20
2018-07-03T22:49:05.335Z,22.30
2018-07-03T22:53:59.983Z,22.30
2018-07-03T22:58:54.794Z,22.30
2018-07-03T23:03:49.474Z,22.30
2018-07-03T23:08:44.232Z,22.20
2018-07-03T23:13:39.066Z,22.20
2018-07-03T23:18:33.558Z,22.20
2018-07-03T23:23:28.182Z,22.20
2018-07-03T23:28:22.660Z,22.30
2018-07-03T23:33:17.378Z,22.30
2018-07-03T23:38:12.234Z,22.30
2018-07-03T23:48:18.219Z,22.30
2018-07-03T23:53:29.748Z,22.30
2018-07-03T23:58:41.223Z,22.20
